createdAt,value
2017-12-02T00:02:36.925Z,5.10
2017-12-02T00:17:35.124Z,4.63
2017-12-02T00:32:35.092Z,3.60
2017-12-02T00:47:34.408Z,3.20
2017-12-02T01:02:36.165Z,3.10
2017-12-02T01:17:34.292Z,2.50
2017-12-02T01:32:34.308Z,2.50
2017-12-02T01:47:36.123Z,1.30
2017-12-02T02:02:34.610Z,1.10
2017-12-02T02:17:37.499Z,1.90
2017-12-02T02:32:34.517Z,5.97
2017-12-02T02:47:34.831Z,5.83
2017-12-02T03:02:37.555Z,5.27
2017-12-02T03:17:36.764Z,4.93
2017-12-02T03:32:34.725Z,3.80
2017-12-02T03:47:35.091Z,2.33
2017-12-02T04:02:34.582Z,1.90
2017-12-02T04:17:34.974Z,1.97
2017-12-02T04:32:34.924Z,2.40
2017-12-02T04:47:38.856Z,2.50
2017-12-02T05:02:34.034Z,3.80
2017-12-02T05:17:37.254Z,5.80
2017-12-02T05:32:37.144Z,5.23
2017-12-02T05:47:34.535Z,5.13
2017-12-02T06:02:34.287Z,4.37
2017-12-02T06:17:34.428Z,5.70
2017-12-02T06:32:36.331Z,5.60
2017-12-02T06:47:34.332Z,11.47
2017-12-02T07:02:36.723Z,13.50
2017-12-02T07:17:34.739Z,11.23
2017-12-02T07:32:34.587Z,4.67
2017-12-02T07:47:35.084Z,3.93
2017-12-02T08:02:34.900Z,5.30
2017-12-02T08:17:34.855Z,5.17
2017-12-02T08:32:34.936Z,4.30
2017-12-02T08:47:34.256Z,4.10
2017-12-02T09:02:35.009Z,6.60
2017-12-02T09:17:35.110Z,3.97
2017-12-02T09:32:35.051Z,4.30
2017-12-02T09:47:34.452Z,4.03
2017-12-02T10:02:34.436Z,5.53
2017-12-02T10:17:34.376Z,5.30
2017-12-02T10:32:34.276Z,6.17
2017-12-02T10:47:34.205Z,4.60
2017-12-02T11:02:35.316Z,4.60
2017-12-02T11:17:34.557Z,6.57
2017-12-02T11:32:37.488Z,5.80
2017-12-02T11:47:37.147Z,7.33
2017-12-02T12:02:36.888Z,3.67
2017-12-02T12:17:34.807Z,3.33
2017-12-02T12:32:34.759Z,4.27
2017-12-02T12:47:36.216Z,8.30
2017-12-02T13:02:35.883Z,7.70
2017-12-02T13:17:34.592Z,6.67
2017-12-02T13:32:34.992Z,24.97
2017-12-02T13:47:34.391Z,16.47
2017-12-02T14:02:34.360Z,14.30
2017-12-02T14:17:34.809Z,16.40
2017-12-02T14:32:34.254Z,17.13
2017-12-02T14:47:34.430Z,21.73
2017-12-02T15:02:34.893Z,17.27
2017-12-02T15:17:38.004Z,14.27
2017-12-02T15:32:35.531Z,21.70
2017-12-02T15:47:34.921Z,33.67
2017-12-02T16:02:37.874Z,40.50
2017-12-02T16:17:35.302Z,27.23
2017-12-02T16:32:33.981Z,24.03
2017-12-02T16:47:34.628Z,32.47
2017-12-02T17:02:38.901Z,27.00
2017-12-02T17:17:36.506Z,23.93
2017-12-02T17:32:34.957Z,33.00
2017-12-02T17:47:35.611Z,31.60
2017-12-02T18:02:36.688Z,31.37
2017-12-02T18:17:35.522Z,40.13
2017-12-02T18:32:33.647Z,31.53
2017-12-02T18:47:35.861Z,33.70
2017-12-02T19:02:36.540Z,41.50
2017-12-02T19:17:37.106Z,45.70
2017-12-02T19:32:38.808Z,40.90
2017-12-02T19:47:37.030Z,27.00
2017-12-02T20:02:35.194Z,43.20
2017-12-02T20:17:38.048Z,41.27
2017-12-02T20:32:34.673Z,33.20
2017-12-02T20:47:36.367Z,35.00
2017-12-02T21:02:37.274Z,36.87
2017-12-02T21:17:33.776Z,46.37
2017-12-02T21:32:36.852Z,55.83
2017-12-02T21:47:33.558Z,54.17
2017-12-02T22:02:33.224Z,50.70
2017-12-02T22:17:32.966Z,53.00
2017-12-02T22:32:34.149Z,40.60
2017-12-02T22:47:34.520Z,25.33
2017-12-02T23:02:33.733Z,28.40
2017-12-02T23:17:33.658Z,26.40
2017-12-02T23:32:36.649Z,30.43
2017-12-02T23:47:35.012Z,32.20
